Time;durP1;ratioP1;P1;durP2;ratioP2;P2;SDS_P1;SDS_P2;PMS_P1;PMS_P2;Temp;Humidity;BMP_temperature;BMP_pressure;BME280_temperature;BME280_humidity;BME280_pressure;Samples;Min_cycle;Max_cycle;Signal;HPM_P1;HPM_P2
2022/07/18 00:01:51;;;;;;;1.98;0.77;;;18.00;42.80;;;;;;4968635;28;20050;-69
2022/07/18 00:04:17;;;;;;;0.70;0.60;;;18.00;42.80;;;;;;4972550;28;20778;-69
2022/07/18 00:06:42;;;;;;;1.33;0.70;;;17.90;42.90;;;;;;4965470;28;20125;-70
2022/07/18 00:09:08;;;;;;;3.63;0.80;;;17.90;43.00;;;;;;4963006;28;20053;-70
2022/07/18 00:11:33;;;;;;;1.60;0.50;;;17.90;43.20;;;;;;4975661;28;20041;-70
2022/07/18 00:13:59;;;;;;;2.05;0.50;;;17.80;43.30;;;;;;4926269;28;20070;-71
2022/07/18 00:16:24;;;;;;;1.85;1.00;;;17.80;43.50;;;;;;4965134;28;20073;-70
2022/07/18 00:18:50;;;;;;;2.58;0.70;;;17.80;43.50;;;;;;4969125;28;20106;-72
2022/07/18 00:21:16;;;;;;;1.42;0.88;;;17.70;43.70;;;;;;4975252;28;20113;-69
2022/07/18 00:23:41;;;;;;;1.05;0.80;;;17.60;43.70;;;;;;4973694;28;20058;-70
2022/07/18 00:26:07;;;;;;;2.63;0.70;;;17.60;43.90;;;;;;4965972;28;20035;-70
2022/07/18 00:28:32;;;;;;;3.08;0.80;;;17.60;44.10;;;;;;4967107;28;20046;-70
2022/07/18 00:30:58;;;;;;;4.47;0.80;;;17.50;44.10;;;;;;4978875;28;20048;-69
2022/07/18 00:33:23;;;;;;;1.83;0.82;;;17.50;44.30;;;;;;4993458;28;20038;-72
2022/07/18 00:35:49;;;;;;;4.00;0.80;;;17.40;44.40;;;;;;4962836;28;20037;-71
2022/07/18 00:38:14;;;;;;;1.25;0.52;;;17.40;44.70;;;;;;4968099;28;20035;-69
2022/07/18 00:40:40;;;;;;;4.25;0.63;;;17.30;44.70;;;;;;4990861;28;20034;-69
2022/07/18 00:43:05;;;;;;;1.33;0.77;;;17.30;44.80;;;;;;4960973;28;20515;-71
2022/07/18 00:45:31;;;;;;;1.52;0.77;;;17.30;45.00;;;;;;4970879;28;20042;-70
2022/07/18 00:47:57;;;;;;;3.78;0.65;;;17.20;45.00;;;;;;4947262;28;20046;-69
2022/07/18 00:50:22;;;;;;;1.15;0.77;;;17.20;45.10;;;;;;4945011;28;20617;-73
2022/07/18 00:52:48;;;;;;;0.80;0.57;;;17.10;45.30;;;;;;4925497;28;20040;-70
2022/07/18 00:55:13;;;;;;;2.63;0.95;;;17.10;45.30;;;;;;4962256;28;20705;-71
2022/07/18 00:57:39;;;;;;;3.33;0.80;;;17.00;45.40;;;;;;4963018;28;20129;-69
2022/07/18 01:02:53;;;;;;;1.88;0.60;;;16.90;45.50;;;;;;4934705;28;20067;-69
2022/07/18 01:05:18;;;;;;;1.08;0.70;;;16.90;45.70;;;;;;4933031;28;23677;-70
2022/07/18 01:07:44;;;;;;;1.92;0.80;;;16.90;45.80;;;;;;4939284;28;20062;-69
2022/07/18 01:10:09;;;;;;;4.65;0.70;;;16.80;45.90;;;;;;4929913;28;20488;-70
2022/07/18 01:12:35;;;;;;;2.97;0.70;;;16.80;46.00;;;;;;4955017;28;20041;-70
2022/07/18 01:15:01;;;;;;;1.02;0.77;;;16.70;46.20;;;;;;4951356;28;20048;-69
2022/07/18 01:17:26;;;;;;;2.75;0.90;;;16.70;46.20;;;;;;4954090;28;20721;-69
2022/07/18 01:19:52;;;;;;;0.93;0.75;;;16.70;46.40;;;;;;4940883;28;20053;-71
2022/07/18 01:22:18;;;;;;;1.40;0.70;;;16.60;46.40;;;;;;4956829;28;20034;-70
2022/07/18 01:24:43;;;;;;;1.77;1.00;;;16.60;46.60;;;;;;4955527;28;20046;-69
2022/07/18 01:27:15;;;;;;;3.22;0.60;;;16.60;46.70;;;;;;4944416;28;20391;-70
2022/07/18 01:29:41;;;;;;;1.75;0.57;;;16.50;46.70;;;;;;4925028;28;20035;-70
2022/07/18 01:32:07;;;;;;;3.15;0.70;;;16.50;46.70;;;;;;4955606;28;20035;-70
2022/07/18 01:34:33;;;;;;;1.35;0.70;;;16.50;46.90;;;;;;4941296;28;20046;-70
2022/07/18 01:36:59;;;;;;;2.92;0.73;;;16.40;47.10;;;;;;4937912;28;20035;-69
2022/07/18 01:39:25;;;;;;;3.42;0.88;;;16.40;47.20;;;;;;4945066;28;20035;-69
2022/07/18 01:42:15;;;;;;;1.35;0.80;;;16.30;47.40;;;;;;4947914;28;21142;-69
2022/07/18 01:44:42;;;;;;;1.60;0.65;;;16.30;47.70;;;;;;4978717;28;20410;-70
2022/07/18 01:47:08;;;;;;;0.85;0.60;;;16.20;47.60;;;;;;4959045;28;20046;-71
2022/07/18 01:49:34;;;;;;;1.98;0.60;;;16.20;47.60;;;;;;4976114;28;20038;-69
2022/07/18 01:51:59;;;;;;;3.47;0.52;;;16.20;47.70;;;;;;4970698;28;20030;-70
2022/07/18 01:54:29;;;;;;;1.48;0.70;;;16.10;47.80;;;;;;4956941;28;20045;-69
2022/07/18 01:56:55;;;;;;;2.45;0.77;;;16.10;48.00;;;;;;4966942;28;20057;-71
2022/07/18 01:59:21;;;;;;;3.47;0.82;;;16.10;48.00;;;;;;4983197;28;20093;-69
2022/07/18 02:01:46;;;;;;;0.90;0.70;;;16.00;48.00;;;;;;4989272;28;20057;-71
2022/07/18 02:04:12;;;;;;;5.03;1.15;;;16.00;48.20;;;;;;4953474;28;20038;-70
2022/07/18 02:06:37;;;;;;;2.75;0.98;;;16.00;48.30;;;;;;4974426;28;20035;-70
2022/07/18 02:09:04;;;;;;;0.70;0.60;;;15.90;48.30;;;;;;4967936;28;20094;-70
2022/07/18 02:11:29;;;;;;;1.30;0.70;;;15.90;48.40;;;;;;4946433;28;20117;-70
2022/07/18 02:13:55;;;;;;;0.73;0.55;;;15.90;48.60;;;;;;4956427;28;20201;-72
2022/07/18 02:16:20;;;;;;;1.83;0.73;;;15.80;48.70;;;;;;4974269;28;20141;-71
2022/07/18 02:18:46;;;;;;;2.53;0.90;;;15.80;48.80;;;;;;4961894;28;20393;-70
2022/07/18 02:21:13;;;;;;;1.65;0.82;;;15.80;48.80;;;;;;4935236;28;20050;-70
2022/07/18 02:23:39;;;;;;;3.38;0.80;;;15.70;48.90;;;;;;4962637;28;20115;-69
2022/07/18 02:26:04;;;;;;;1.13;0.60;;;15.70;49.00;;;;;;4969492;28;20125;-71
2022/07/18 02:28:30;;;;;;;2.08;0.80;;;15.70;49.00;;;;;;4977122;28;20640;-70
2022/07/18 02:30:55;;;;;;;1.73;0.70;;;15.60;49.20;;;;;;4943473;28;20540;-70
2022/07/18 02:33:21;;;;;;;2.20;0.60;;;15.60;49.20;;;;;;4942281;28;20436;-70
2022/07/18 02:35:46;;;;;;;2.55;0.88;;;15.60;49.30;;;;;;4946552;28;20531;-69
2022/07/18 02:38:12;;;;;;;1.30;0.68;;;15.50;49.40;;;;;;4942220;28;20487;-70
2022/07/18 02:40:38;;;;;;;1.40;0.80;;;15.50;50.20;;;;;;4947688;28;20047;-70
2022/07/18 02:43:03;;;;;;;1.25;0.80;;;15.50;49.60;;;;;;4963427;28;20112;-69
2022/07/18 02:45:29;;;;;;;2.50;0.80;;;15.40;49.70;;;;;;4951764;28;20035;-68
2022/07/18 02:47:54;;;;;;;2.17;0.75;;;15.40;49.80;;;;;;4965566;28;20031;-71
2022/07/18 02:50:20;;;;;;;4.03;1.05;;;15.40;49.80;;;;;;4953340;28;20034;-69
2022/07/18 02:52:46;;;;;;;0.75;0.60;;;15.40;49.90;;;;;;4961655;28;20553;-69
2022/07/18 02:55:12;;;;;;;1.05;0.70;;;15.30;49.90;;;;;;4960975;28;20400;-69
2022/07/18 02:57:38;;;;;;;1.95;0.80;;;15.30;50.10;;;;;;4951155;28;20039;-69
2022/07/18 03:00:05;;;;;;;3.08;1.10;;;15.20;50.10;;;;;;4937375;28;20051;-69
2022/07/18 03:02:30;;;;;;;2.88;0.90;;;15.20;50.30;;;;;;4944077;28;20050;-69
2022/07/18 03:04:56;;;;;;;2.60;0.88;;;15.20;50.30;;;;;;4938281;28;20030;-70
2022/07/18 03:07:21;;;;;;;1.88;0.80;;;15.10;50.50;;;;;;4944176;28;20118;-68
2022/07/18 03:09:47;;;;;;;1.38;0.90;;;15.10;50.60;;;;;;4950816;28;20102;-70
2022/07/18 03:12:12;;;;;;;3.92;0.88;;;15.10;50.60;;;;;;4943058;28;20035;-70
2022/07/18 03:14:41;;;;;;;1.08;0.70;;;15.10;50.70;;;;;;4947277;28;20515;-71
2022/07/18 03:17:06;;;;;;;1.00;0.60;;;15.00;50.80;;;;;;4971842;28;20074;-70
2022/07/18 03:19:32;;;;;;;1.38;0.68;;;15.00;50.80;;;;;;4941521;28;20054;-70
2022/07/18 03:21:58;;;;;;;2.47;0.80;;;14.90;50.90;;;;;;4963082;28;21302;-70
2022/07/18 03:24:23;;;;;;;9.30;1.08;;;14.90;51.00;;;;;;4934563;28;20031;-69
2022/07/18 03:26:49;;;;;;;0.95;0.63;;;14.90;51.00;;;;;;4920423;28;20042;-71
2022/07/18 03:29:14;;;;;;;2.28;0.75;;;14.90;51.20;;;;;;4943760;28;20633;-70
2022/07/18 03:31:40;;;;;;;1.83;0.77;;;14.80;51.10;;;;;;4950470;28;20482;-71
2022/07/18 03:34:06;;;;;;;1.05;0.70;;;14.80;51.30;;;;;;4962370;28;20043;-70
2022/07/18 03:36:31;;;;;;;1.27;0.77;;;14.80;51.50;;;;;;4929624;28;20042;-70
2022/07/18 03:38:57;;;;;;;1.85;0.90;;;14.80;51.50;;;;;;4919504;28;20229;-71
2022/07/18 03:41:22;;;;;;;2.17;0.80;;;14.70;51.50;;;;;;4940510;28;20036;-71
2022/07/18 03:43:48;;;;;;;2.15;0.85;;;14.70;51.70;;;;;;4950944;28;20035;-69
2022/07/18 03:46:13;;;;;;;1.48;0.88;;;14.70;51.80;;;;;;4942478;28;20052;-69
2022/07/18 03:48:39;;;;;;;1.25;0.80;;;14.70;51.80;;;;;;4960471;28;20043;-69
2022/07/18 03:51:04;;;;;;;2.08;0.70;;;14.70;51.90;;;;;;4944623;28;20066;-69
2022/07/18 03:53:31;;;;;;;1.80;1.00;;;14.60;52.00;;;;;;4984511;28;20046;-69
2022/07/18 03:55:56;;;;;;;2.40;0.80;;;14.60;52.00;;;;;;4973813;28;20047;-69
2022/07/18 03:58:22;;;;;;;2.00;1.00;;;14.60;52.10;;;;;;4954610;28;21010;-69
2022/07/18 04:00:47;;;;;;;2.70;0.98;;;14.50;52.30;;;;;;4948819;28;20034;-70
2022/07/18 04:03:13;;;;;;;1.30;0.80;;;14.50;52.40;;;;;;4965345;28;20027;-70
2022/07/18 04:05:38;;;;;;;2.97;1.10;;;14.50;52.40;;;;;;4993045;28;20134;-68
2022/07/18 04:08:04;;;;;;;1.65;0.93;;;14.50;52.60;;;;;;4953554;28;20785;-69
2022/07/18 04:10:30;;;;;;;2.88;1.00;;;14.40;52.70;;;;;;4969527;28;20582;-70
2022/07/18 04:12:56;;;;;;;1.65;1.00;;;14.40;52.80;;;;;;4960176;28;20043;-69
2022/07/18 04:15:22;;;;;;;1.55;0.85;;;14.40;52.90;;;;;;4959899;28;20033;-69
2022/07/18 04:17:48;;;;;;;2.05;0.80;;;14.40;53.00;;;;;;4952669;28;20082;-70
2022/07/18 04:20:14;;;;;;;2.00;0.60;;;14.40;53.10;;;;;;4961801;28;20030;-68
2022/07/18 04:22:47;;;;;;;1.70;0.93;;;14.40;53.10;;;;;;4969815;28;20422;-68
2022/07/18 04:25:13;;;;;;;3.53;0.95;;;14.30;53.30;;;;;;4966577;28;20037;-69
2022/07/18 04:27:39;;;;;;;1.30;0.93;;;14.30;53.20;;;;;;4959549;28;20097;-68
2022/07/18 04:30:05;;;;;;;1.17;0.80;;;14.30;53.30;;;;;;4953725;28;20038;-70
2022/07/18 04:32:30;;;;;;;3.25;0.90;;;14.30;53.50;;;;;;4963614;28;20083;-70
2022/07/18 04:34:56;;;;;;;2.85;0.70;;;14.30;53.70;;;;;;4951617;28;20646;-69
2022/07/18 04:37:21;;;;;;;3.63;0.70;;;14.30;53.80;;;;;;4966234;28;20022;-68
2022/07/18 04:39:47;;;;;;;2.42;0.80;;;14.30;53.90;;;;;;4964345;28;20092;-69
2022/07/18 04:42:12;;;;;;;2.15;1.00;;;14.30;54.00;;;;;;4980887;28;20039;-70
2022/07/18 04:44:38;;;;;;;1.50;0.60;;;14.30;54.30;;;;;;4973021;28;20379;-69
2022/07/18 04:47:03;;;;;;;1.45;0.70;;;14.30;54.20;;;;;;4958064;28;20070;-69
2022/07/18 04:49:29;;;;;;;3.13;0.80;;;14.30;54.30;;;;;;4963980;28;20142;-69
2022/07/18 04:51:54;;;;;;;8.93;1.42;;;14.30;54.20;;;;;;4941392;28;20584;-68
2022/07/18 04:54:20;;;;;;;1.42;0.80;;;14.40;54.20;;;;;;4988943;28;20525;-68
2022/07/18 04:56:46;;;;;;;2.40;1.10;;;14.30;54.30;;;;;;4955385;28;20513;-69
2022/07/18 04:59:11;;;;;;;4.53;1.25;;;14.40;54.40;;;;;;4984037;28;20042;-68
2022/07/18 05:01:37;;;;;;;5.43;0.90;;;14.40;54.30;;;;;;4971247;28;20041;-69
2022/07/18 05:04:02;;;;;;;6.00;1.27;;;14.40;54.40;;;;;;4955027;28;20146;-69
2022/07/18 05:06:28;;;;;;;2.50;1.23;;;14.40;54.60;;;;;;4957905;28;20045;-70
2022/07/18 05:08:53;;;;;;;3.83;1.65;;;14.40;54.50;;;;;;4929599;28;20046;-69
2022/07/18 05:11:19;;;;;;;6.13;1.00;;;14.50;54.60;;;;;;4960588;28;20042;-69
2022/07/18 05:13:44;;;;;;;4.60;1.35;;;14.50;54.70;;;;;;4959572;28;20538;-69
2022/07/18 05:16:10;;;;;;;3.20;1.10;;;14.50;54.60;;;;;;4952580;28;20060;-70
2022/07/18 05:18:36;;;;;;;5.13;1.20;;;14.60;54.80;;;;;;4971140;28;20641;-68
2022/07/18 05:21:01;;;;;;;11.38;1.60;;;14.60;54.90;;;;;;4965749;28;20113;-69
2022/07/18 05:23:27;;;;;;;4.50;1.42;;;14.60;54.90;;;;;;4945633;28;20101;-69
2022/07/18 05:25:52;;;;;;;4.20;1.15;;;14.70;55.10;;;;;;4989338;28;20051;-69
2022/07/18 05:28:18;;;;;;;4.35;1.17;;;14.70;55.30;;;;;;4964381;28;20042;-71
2022/07/18 05:30:43;;;;;;;3.40;1.20;;;14.80;55.50;;;;;;4965936;28;20033;-70
2022/07/18 05:33:09;;;;;;;2.08;1.05;;;14.80;55.60;;;;;;4948778;28;20035;-70
2022/07/18 05:35:35;;;;;;;8.63;1.85;;;14.90;55.80;;;;;;4950319;28;20052;-70
2022/07/18 05:38:00;;;;;;;3.20;1.13;;;14.90;55.70;;;;;;4944069;28;20049;-71
2022/07/18 05:40:26;;;;;;;2.17;1.52;;;15.00;55.80;;;;;;4963612;28;20065;-70
2022/07/18 05:42:51;;;;;;;6.15;1.60;;;15.10;55.80;;;;;;4961637;28;20177;-70
2022/07/18 05:45:17;;;;;;;3.13;1.80;;;15.20;56.20;;;;;;4973749;28;20031;-70
2022/07/18 05:47:42;;;;;;;6.22;2.20;;;15.20;55.90;;;;;;4980313;28;20034;-70
2022/07/18 05:50:08;;;;;;;2.65;1.65;;;15.30;55.90;;;;;;4957358;28;20045;-70
2022/07/18 05:52:34;;;;;;;7.40;1.70;;;15.40;55.80;;;;;;4972574;28;20038;-71
2022/07/18 05:55:00;;;;;;;6.35;2.25;;;15.40;55.80;;;;;;4967371;28;20054;-69
2022/07/18 05:57:26;;;;;;;4.38;1.83;;;15.50;55.80;;;;;;4958054;28;20034;-71
2022/07/18 05:59:51;;;;;;;3.55;1.60;;;15.60;55.90;;;;;;4973434;28;20514;-69
2022/07/18 06:02:17;;;;;;;7.90;1.80;;;15.70;55.90;;;;;;4980447;28;20058;-71
2022/07/18 06:04:42;;;;;;;5.30;1.50;;;15.80;55.90;;;;;;4962337;28;20488;-69
2022/07/18 06:07:08;;;;;;;5.15;1.73;;;15.90;55.90;;;;;;4979624;28;20606;-69
2022/07/18 06:09:33;;;;;;;6.53;1.95;;;15.90;55.60;;;;;;4972513;28;20039;-70
2022/07/18 06:11:59;;;;;;;6.65;1.77;;;16.10;55.60;;;;;;4972357;28;20463;-70
2022/07/18 06:14:28;;;;;;;5.28;1.30;;;16.20;55.60;;;;;;4971496;28;20042;-69
2022/07/18 06:16:53;;;;;;;6.80;1.35;;;16.30;55.50;;;;;;4945424;28;20167;-70
2022/07/18 06:19:19;;;;;;;8.35;1.20;;;16.40;55.30;;;;;;4965459;28;20042;-69
2022/07/18 06:21:45;;;;;;;5.55;1.20;;;16.60;55.20;;;;;;4966695;28;20065;-70
2022/07/18 06:24:10;;;;;;;4.38;1.25;;;16.70;55.00;;;;;;4944225;28;20065;-69
2022/07/18 06:26:36;;;;;;;3.38;1.00;;;16.90;54.80;;;;;;4973160;28;20115;-69
2022/07/18 06:29:01;;;;;;;3.85;1.13;;;17.00;54.60;;;;;;4956834;28;20093;-71
2022/07/18 06:31:27;;;;;;;4.63;0.90;;;17.20;54.30;;;;;;4960869;28;20117;-69
2022/07/18 06:33:52;;;;;;;2.65;1.08;;;17.30;53.90;;;;;;4952913;28;20505;-70
2022/07/18 06:36:18;;;;;;;4.55;0.80;;;17.50;53.50;;;;;;4957399;28;20029;-71
2022/07/18 06:38:44;;;;;;;2.75;0.80;;;17.60;53.20;;;;;;4954300;28;20073;-73
2022/07/18 06:41:09;;;;;;;4.25;1.00;;;17.80;52.80;;;;;;4955576;28;20567;-73
2022/07/18 06:43:38;;;;;;;2.90;0.80;;;18.00;52.50;;;;;;4970467;28;20443;-73
2022/07/18 06:46:04;;;;;;;2.35;0.95;;;18.10;52.00;;;;;;4959910;28;20149;-73
2022/07/18 06:48:33;;;;;;;7.15;1.13;;;18.30;51.60;;;;;;4986309;28;20681;-72
2022/07/18 06:51:00;;;;;;;4.43;1.30;;;18.50;51.30;;;;;;4973412;28;20877;-72
2022/07/18 06:53:26;;;;;;;5.55;1.35;;;18.60;51.00;;;;;;4957853;28;20041;-71
2022/07/18 06:55:51;;;;;;;8.68;1.00;;;18.70;50.70;;;;;;4988430;28;20038;-72
2022/07/18 06:58:17;;;;;;;9.82;1.45;;;18.90;50.40;;;;;;4992639;28;20503;-72
2022/07/18 07:00:42;;;;;;;19.15;1.40;;;19.10;50.10;;;;;;4961727;28;20041;-72
2022/07/18 07:03:08;;;;;;;4.05;1.10;;;19.30;49.80;;;;;;4976627;28;20035;-73
2022/07/18 07:05:33;;;;;;;5.45;1.13;;;19.50;49.50;;;;;;4975008;28;20046;-72
2022/07/18 07:07:59;;;;;;;5.60;1.42;;;19.60;49.10;;;;;;4957775;28;20043;-73
2022/07/18 07:10:24;;;;;;;7.55;1.08;;;19.80;49.10;;;;;;4976247;28;20041;-70
2022/07/18 07:12:51;;;;;;;3.70;1.52;;;20.00;48.40;;;;;;4921328;28;20312;-69
2022/07/18 07:15:18;;;;;;;3.33;0.98;;;20.20;48.40;;;;;;4960471;28;20062;-69
2022/07/18 07:17:44;;;;;;;1.60;1.02;;;20.40;48.10;;;;;;4978806;28;20034;-70
2022/07/18 07:20:10;;;;;;;8.23;1.05;;;20.50;47.70;;;;;;4971612;28;20041;-69
2022/07/18 07:22:49;;;;;;;3.95;1.13;;;20.70;47.40;;;;;;4965904;28;20042;-71
2022/07/18 07:25:15;;;;;;;5.43;0.77;;;20.80;46.90;;;;;;4988959;28;20043;-70
2022/07/18 07:27:41;;;;;;;6.72;0.90;;;21.00;46.70;;;;;;4963319;28;20036;-69
2022/07/18 07:30:07;;;;;;;5.15;1.13;;;21.20;46.50;;;;;;4971248;28;20092;-71
2022/07/18 07:32:40;;;;;;;9.35;1.80;;;21.40;46.90;;;;;;4940040;28;20031;-71
2022/07/18 07:35:10;;;;;;;2.88;1.30;;;21.60;45.90;;;;;;4975046;28;20516;-71
2022/07/18 07:37:35;;;;;;;7.93;1.42;;;21.80;45.60;;;;;;4984761;28;20089;-71
2022/07/18 07:40:01;;;;;;;3.75;1.10;;;22.00;45.10;;;;;;4960369;28;20571;-71
2022/07/18 07:42:27;;;;;;;3.22;0.80;;;22.10;44.70;;;;;;4942691;28;20698;-71
2022/07/18 07:44:52;;;;;;;2.97;1.08;;;22.40;44.30;;;;;;4962562;28;20555;-70
2022/07/18 07:47:18;;;;;;;2.45;0.90;;;22.50;43.80;;;;;;4948107;28;20742;-71
2022/07/18 07:49:43;;;;;;;4.20;1.00;;;22.70;43.50;;;;;;4962962;28;20045;-69
2022/07/18 07:52:11;;;;;;;6.97;1.40;;;22.90;43.10;;;;;;4949867;28;20103;-70
2022/07/18 07:54:37;;;;;;;1.13;0.63;;;23.10;42.80;;;;;;4966494;28;20671;-70
2022/07/18 07:57:03;;;;;;;2.17;0.98;;;23.30;42.30;;;;;;4950931;28;20066;-70
2022/07/18 07:59:28;;;;;;;6.50;1.10;;;23.50;42.00;;;;;;4954215;28;20030;-69
2022/07/18 08:01:54;;;;;;;1.98;0.75;;;23.70;41.80;;;;;;4959632;28;20106;-71
2022/07/18 08:04:20;;;;;;;8.77;1.10;;;23.90;41.40;;;;;;4980926;28;20069;-71
2022/07/18 08:06:45;;;;;;;3.20;0.80;;;24.10;41.00;;;;;;4959545;28;20527;-70
2022/07/18 08:09:11;;;;;;;2.30;0.70;;;24.30;40.70;;;;;;4991001;28;20130;-73
2022/07/18 08:11:36;;;;;;;3.55;0.80;;;24.50;40.30;;;;;;4955135;28;20031;-71
2022/07/18 08:14:02;;;;;;;5.05;0.85;;;24.70;39.70;;;;;;4976427;28;20066;-70
2022/07/18 08:16:28;;;;;;;5.32;0.85;;;24.80;39.30;;;;;;4957434;28;20567;-71
2022/07/18 08:18:53;;;;;;;1.52;0.80;;;25.00;38.80;;;;;;4982037;28;20053;-71
2022/07/18 08:21:19;;;;;;;1.33;0.82;;;25.20;38.40;;;;;;4984949;28;21772;-70
2022/07/18 08:23:47;;;;;;;4.28;1.13;;;25.40;38.10;;;;;;4939459;28;20411;-71
2022/07/18 08:26:12;;;;;;;2.13;0.70;;;25.50;37.80;;;;;;4967611;28;20499;-70
2022/07/18 08:28:38;;;;;;;1.98;0.77;;;25.70;37.60;;;;;;4966739;28;20066;-72
2022/07/18 08:31:03;;;;;;;2.20;0.90;;;25.90;37.30;;;;;;4971968;28;20704;-71
2022/07/18 08:33:29;;;;;;;2.90;0.90;;;26.10;36.90;;;;;;4944198;28;20093;-72
2022/07/18 08:35:54;;;;;;;2.67;1.00;;;26.30;36.50;;;;;;4954357;28;20713;-71
2022/07/18 08:38:20;;;;;;;4.60;0.80;;;26.60;36.20;;;;;;4975886;28;20035;-72
2022/07/18 08:40:47;;;;;;;3.20;0.70;;;26.70;35.80;;;;;;4986595;28;20053;-71
2022/07/18 08:43:12;;;;;;;1.65;0.70;;;26.90;35.40;;;;;;4947633;28;20035;-71
2022/07/18 08:45:38;;;;;;;4.47;0.90;;;27.10;35.30;;;;;;4957537;28;20046;-73
2022/07/18 08:48:03;;;;;;;3.67;1.27;;;27.30;35.00;;;;;;4993235;28;20049;-72
2022/07/18 08:50:29;;;;;;;2.00;0.80;;;27.60;34.60;;;;;;4967989;28;20124;-71
2022/07/18 08:52:55;;;;;;;5.55;0.90;;;27.70;34.20;;;;;;4966346;28;20166;-72
2022/07/18 08:55:20;;;;;;;3.30;0.90;;;28.00;33.90;;;;;;4987280;28;20058;-72
2022/07/18 08:57:46;;;;;;;2.83;0.90;;;28.20;33.80;;;;;;4987158;28;20030;-72
2022/07/18 09:00:12;;;;;;;5.15;0.90;;;28.40;33.50;;;;;;4960661;28;20035;-72
2022/07/18 09:02:37;;;;;;;1.75;0.93;;;28.60;33.10;;;;;;4985595;28;20549;-71
2022/07/18 09:05:04;;;;;;;4.13;0.90;;;28.90;32.90;;;;;;4961824;28;20046;-70
2022/07/18 09:07:34;;;;;;;3.17;1.00;;;29.00;32.40;;;;;;4961932;28;20590;-71
2022/07/18 09:10:02;;;;;;;1.35;0.80;;;29.20;32.10;;;;;;4959243;28;20357;-72
2022/07/18 09:12:28;;;;;;;1.63;0.70;;;29.30;31.80;;;;;;4957326;28;20678;-71
2022/07/18 09:14:53;;;;;;;1.08;0.60;;;29.40;31.40;;;;;;4955643;28;20085;-71
2022/07/18 09:17:26;;;;;;;11.18;1.17;;;29.60;31.30;;;;;;4951967;28;20440;-71
2022/07/18 09:20:11;;;;;;;2.95;0.95;;;29.80;30.90;;;;;;4958357;28;20117;-71
2022/07/18 09:22:41;;;;;;;4.85;0.88;;;30.00;30.40;;;;;;4992302;28;20035;-72
2022/07/18 09:25:11;;;;;;;1.95;0.80;;;30.20;30.80;;;;;;4960470;28;20035;-71
2022/07/18 09:27:50;;;;;;;1.05;0.70;;;30.50;30.70;;;;;;4978282;28;20034;-72
2022/07/18 09:30:25;;;;;;;2.55;0.52;;;30.70;30.10;;;;;;4977976;28;20088;-71
2022/07/18 09:33:02;;;;;;;2.63;0.80;;;31.00;30.00;;;;;;4970964;28;20756;-72
2022/07/18 09:35:29;;;;;;;0.55;0.40;;;31.20;29.90;;;;;;4964847;28;20101;-72
2022/07/18 09:37:59;;;;;;;1.05;0.60;;;31.40;29.50;;;;;;4974842;28;20035;-72
2022/07/18 09:40:46;;;;;;;10.02;1.23;;;31.60;29.20;;;;;;4986879;28;20034;-73
2022/07/18 09:43:13;;;;;;;4.68;0.73;;;31.80;29.00;;;;;;4949005;28;20449;-71
2022/07/18 09:45:47;;;;;;;2.58;0.80;;;31.90;28.50;;;;;;4968924;28;20069;-70
2022/07/18 09:48:14;;;;;;;3.22;0.70;;;32.10;27.90;;;;;;4967589;28;20035;-72
2022/07/18 09:50:41;;;;;;;1.13;0.70;;;32.30;28.00;;;;;;4936252;28;20129;-70
2022/07/18 09:53:12;;;;;;;1.98;0.60;;;32.50;27.70;;;;;;4966841;28;20641;-71
2022/07/18 09:55:45;;;;;;;4.57;0.77;;;32.60;27.40;;;;;;4951623;28;20110;-72
2022/07/18 09:58:11;;;;;;;2.78;1.10;;;32.80;26.70;;;;;;4914241;28;20500;-72
2022/07/18 10:00:37;;;;;;;1.60;0.98;;;32.90;26.70;;;;;;4991335;28;20069;-70
2022/07/18 10:03:04;;;;;;;2.75;0.70;;;33.00;26.60;;;;;;4923598;28;20064;-72
2022/07/18 10:05:31;;;;;;;2.65;0.70;;;33.20;26.50;;;;;;4951075;28;20300;-73
2022/07/18 10:07:58;;;;;;;3.78;0.63;;;33.30;26.20;;;;;;4969430;28;20518;-71
2022/07/18 10:10:24;;;;;;;1.02;0.60;;;33.50;26.20;;;;;;4986963;28;20624;-72
2022/07/18 10:12:52;;;;;;;2.00;0.55;;;33.70;26.00;;;;;;4965967;28;20059;-73
2022/07/18 10:15:19;;;;;;;3.40;0.80;;;33.80;25.80;;;;;;4950228;28;20117;-71
2022/07/18 10:17:44;;;;;;;2.08;0.65;;;33.90;25.70;;;;;;4969777;28;20074;-72
2022/07/18 10:20:10;;;;;;;1.75;0.70;;;34.10;25.50;;;;;;4947253;28;20037;-71
2022/07/18 10:22:38;;;;;;;0.88;0.60;;;34.20;25.40;;;;;;4994527;28;20161;-73
2022/07/18 10:25:05;;;;;;;2.80;0.60;;;34.30;25.40;;;;;;4965907;28;20038;-72
2022/07/18 10:27:50;;;;;;;1.83;0.70;;;34.50;25.30;;;;;;4933372;28;20039;-73
2022/07/18 10:30:16;;;;;;;2.58;1.00;;;34.60;24.70;;;;;;4983536;28;20113;-72
2022/07/18 10:32:42;;;;;;;1.30;0.50;;;34.80;25.10;;;;;;4964118;28;20127;-72
2022/07/18 10:35:08;;;;;;;1.27;0.70;;;34.90;25.00;;;;;;4949663;28;20057;-73
2022/07/18 10:37:33;;;;;;;2.25;0.45;;;35.00;24.80;;;;;;4956148;28;20035;-72
2022/07/18 10:40:24;;;;;;;1.58;0.55;;;35.20;24.70;;;;;;4949706;28;20037;-72
2022/07/18 10:43:27;;;;;;;3.05;0.70;;;35.30;24.10;;;;;;4967284;28;20035;-71
2022/07/18 10:45:53;;;;;;;3.03;0.77;;;35.50;24.10;;;;;;4966725;28;20051;-71
2022/07/18 10:48:33;;;;;;;2.25;0.95;;;35.60;24.50;;;;;;4969313;28;20033;-72
2022/07/18 10:51:06;;;;;;;4.60;1.13;;;35.80;23.80;;;;;;4972799;28;20077;-72
2022/07/18 10:53:59;;;;;;;13.43;1.75;;;35.90;24.30;;;;;;4968374;28;20035;-72
2022/07/18 10:56:28;;;;;;;2.25;0.70;;;36.10;23.80;;;;;;4967457;28;20196;-73
2022/07/18 10:58:56;;;;;;;1.33;0.60;;;36.20;24.20;;;;;;4952146;28;20038;-73
2022/07/18 11:01:23;;;;;;;2.00;0.52;;;36.30;24.20;;;;;;4988989;28;20717;-73
2022/07/18 11:03:49;;;;;;;2.50;0.77;;;36.50;24.10;;;;;;4978802;28;20174;-72
2022/07/18 11:06:14;;;;;;;1.80;0.70;;;36.50;23.90;;;;;;4973323;28;20763;-72
2022/07/18 11:08:40;;;;;;;1.08;0.60;;;36.60;23.90;;;;;;4978694;28;20042;-72
2022/07/18 11:11:06;;;;;;;3.83;0.63;;;36.70;23.80;;;;;;4971224;28;20062;-72
2022/07/18 11:13:43;;;;;;;3.67;0.90;;;36.70;23.60;;;;;;4981435;28;20097;-71
2022/07/18 11:16:38;;;;;;;4.13;0.70;;;36.80;23.40;;;;;;4976254;28;20047;-73
2022/07/18 11:19:15;;;;;;;2.05;0.65;;;36.80;23.70;;;;;;4948564;28;20660;-72
2022/07/18 11:21:40;;;;;;;5.30;0.75;;;37.00;23.50;;;;;;4990993;28;20050;-73
2022/07/18 11:24:07;;;;;;;2.55;0.60;;;37.10;23.50;;;;;;4968565;28;20039;-73
2022/07/18 11:26:33;;;;;;;1.75;0.63;;;37.20;23.30;;;;;;4960521;28;20594;-73
2022/07/18 11:29:00;;;;;;;0.80;0.60;;;37.30;23.20;;;;;;4953053;28;20150;-71
2022/07/18 11:31:26;;;;;;;2.67;0.90;;;37.30;23.00;;;;;;4981515;28;20046;-73
2022/07/18 11:33:52;;;;;;;2.45;0.40;;;37.30;23.00;;;;;;4958970;28;20065;-72
2022/07/18 11:36:19;;;;;;;1.40;0.77;;;37.40;23.00;;;;;;4946617;28;20035;-73
2022/07/18 11:38:49;;;;;;;2.35;0.70;;;37.50;23.50;;;;;;4951915;28;20055;-72
2022/07/18 11:41:15;;;;;;;1.75;0.50;;;37.70;22.90;;;;;;4980721;28;20972;-72
2022/07/18 11:43:40;;;;;;;1.50;0.43;;;37.80;22.90;;;;;;4956409;28;20034;-72
2022/07/18 11:46:10;;;;;;;1.00;0.60;;;37.90;22.70;;;;;;4960999;28;20464;-72
2022/07/18 11:48:36;;;;;;;1.40;0.60;;;38.00;22.60;;;;;;4933215;28;20051;-73
2022/07/18 11:51:02;;;;;;;0.82;0.60;;;38.10;22.50;;;;;;4930542;28;20034;-73
2022/07/18 11:53:27;;;;;;;1.48;0.60;;;38.20;22.40;;;;;;4939062;28;20177;-72
2022/07/18 11:55:53;;;;;;;0.52;0.40;;;38.30;22.30;;;;;;4978205;28;20043;-72
2022/07/18 11:58:19;;;;;;;1.60;1.08;;;38.40;22.20;;;;;;4966392;28;20054;-72
2022/07/18 12:00:45;;;;;;;2.85;0.70;;;38.50;22.10;;;;;;4969919;28;20043;-72
2022/07/18 12:03:17;;;;;;;0.85;0.60;;;38.60;22.00;;;;;;4979795;28;20125;-72
2022/07/18 12:05:50;;;;;;;0.80;0.60;;;38.70;21.90;;;;;;4975448;28;20110;-73
2022/07/18 12:08:26;;;;;;;3.15;0.60;;;38.80;22.00;;;;;;4969869;28;20035;-73
2022/07/18 12:11:04;;;;;;;1.02;0.70;;;38.80;21.30;;;;;;4993042;28;20035;-72
2022/07/18 12:13:42;;;;;;;1.45;0.55;;;39.00;21.20;;;;;;4963570;28;20350;-72
2022/07/18 12:16:08;;;;;;;2.97;0.70;;;39.10;21.40;;;;;;4991214;28;20645;-73
2022/07/18 12:18:34;;;;;;;0.40;0.40;;;39.20;21.50;;;;;;4963835;28;20096;-72
2022/07/18 12:21:09;;;;;;;1.48;0.68;;;39.20;21.40;;;;;;4964636;28;20125;-71
2022/07/18 12:23:34;;;;;;;2.50;0.73;;;39.30;21.00;;;;;;4959719;28;20091;-72
2022/07/18 12:26:01;;;;;;;0.75;0.57;;;39.30;21.30;;;;;;4971587;28;20653;-72
2022/07/18 12:28:28;;;;;;;2.75;0.70;;;39.30;21.20;;;;;;4952810;28;20715;-72
2022/07/18 12:30:53;;;;;;;2.58;0.77;;;39.40;21.10;;;;;;4939255;28;20078;-72
2022/07/18 12:33:19;;;;;;;1.20;0.60;;;39.40;20.90;;;;;;4991350;28;20077;-74
2022/07/18 12:35:44;;;;;;;1.92;0.60;;;39.50;20.90;;;;;;4966829;28;20522;-72
2022/07/18 12:38:14;;;;;;;3.83;0.80;;;39.50;20.80;;;;;;4979936;28;20047;-72
2022/07/18 12:40:45;;;;;;;0.90;0.65;;;39.50;20.70;;;;;;4961732;28;20039;-72
2022/07/18 12:43:27;;;;;;;1.58;0.63;;;39.40;20.50;;;;;;4961351;28;20128;-72
2022/07/18 12:45:53;;;;;;;1.88;0.82;;;39.30;20.30;;;;;;4938070;28;20046;-73
2022/07/18 12:48:19;;;;;;;4.53;1.10;;;39.30;20.60;;;;;;4953897;28;20038;-73